• Join FlightAware (Why Join?)
  • Login
  • US Flag 
12:35AM EDT


 

Airport Tracker/Info


-or-


 

Live Flight TrackerFlight Track Log ✈ USC142 ✈ 13-May-2013 ✈ KBED - KTEB

Flight Track Log - Related Links

Times and Time Zones

All times are in EDT time to prevent confusion due to time zone crossing. See the USC142 flight status page for this flight to view local times or setup timezone preferences in your user account.

Time Position Orientation Groundspeed Altitude Reporting Facility
EDT Latitude Longitude Course Direction KTS MPH feet Rate Location/Type
09:19PM 42.4667 -71.3167 228° Southwest 134 154 2,400  Level KA90
09:20PM 42.4333 -71.3333 200° South 143 165 3,600 960 Climbing KA90
09:21PM 42.4000 -71.3833 228° Southwest 164 189 4,400 780 Climbing KA90
09:21PM 42.3667 -71.4167 216° Southwest 157 181 5,100 600 Climbing KA90
09:23PM 42.3333 -71.4667 228° Southwest 156 180 5,600 420 Climbing KA90
09:24PM 42.3186 -71.4555 228° Southwest  Level FlightAware Approximate
09:24PM 42.3000 -71.5000 216° Southwest 159 183 6,000  Level KA90
09:24PM 42.2842 -71.5253 230° Southwest 162 186 6,100 60 Climbing Boston Center
09:25PM 42.2594 -71.5592 225° Southwest 170 196 6,100  Level Boston Center
09:26PM 42.2244 -71.6047 224° Southwest 173 199 6,100  Level Boston Center
09:27PM 42.1956 -71.6497 229° Southwest 172 198 6,100  Level Boston Center
09:28PM 42.1708 -71.7006 237° Southwest 170 196 6,100  Level Boston Center
09:29PM 42.1461 -71.7542 238° Southwest 173 199 6,100  Level Boston Center
09:30PM 42.1194 -71.8186 241° Southwest 169 194 6,100  Level Boston Center
09:31PM 42.0906 -71.8722 234° Southwest 175 201 6,100  Level Boston Center
09:32PM 42.0658 -71.9283 239° Southwest 178 205 6,100  Level Boston Center
09:33PM 42.0389 -71.9844 237° Southwest 176 203 6,100  Level Boston Center
09:34PM 42.0119 -72.0406 237° Southwest 178 205 6,100  Level Boston Center
09:35PM 41.9892 -72.0967 241° Southwest 177 204 6,100  Level Boston Center
09:36PM 41.9603 -72.1581 238° Southwest 186 214 6,100  Level Boston Center
09:37PM 41.9356 -72.2197 242° Southwest 181 208 6,100  Level Boston Center
09:38PM 41.9064 -72.2811 237° Southwest 186 214 6,100 -60 Level Boston Center
09:39PM 41.8772 -72.3369 235° Southwest 184 212 6,000 -60 Descending Boston Center
09:40PM 41.8503 -72.3928 237° Southwest 184 212 6,000  Level Boston Center
09:41PM 41.8231 -72.4483 237° Southwest 181 208 6,000  Level Boston Center
09:42PM 41.7961 -72.5042 237° Southwest 182 209 6,000  Level Boston Center
09:43PM 41.7708 -72.5542 236° Southwest 184 212 6,000  Level Boston Center
09:44PM 41.7417 -72.6097 235° Southwest 184 212 6,000  Level Boston Center
09:45PM 41.7144 -72.6792 242° Southwest 185 213 6,000  Level Boston Center
09:46PM 41.6914 -72.7375 242° Southwest 184 212 6,000  Level Boston Center
09:47PM 41.6661 -72.7986 241° Southwest 180 207 6,000  Level Boston Center
09:48PM 41.6369 -72.8511 233° Southwest 178 205 6,000  Level Boston Center
09:50PM 41.5833 -72.9500 234° Southwest 186 214 6,100  Climbing New York TRACON
09:51PM 41.5667 -73.0000 246° West 186 214 6,100  Level New York TRACON
09:52PM 41.5333 -73.0667 236° Southwest 184 212 6,200  Climbing New York TRACON
09:53PM 41.5000 -73.1167 228° Southwest 185 213 6,100 -60 Descending New York TRACON
09:54PM 41.4667 -73.1667 228° Southwest 183 211 6,100  Level New York TRACON
09:55PM 41.4500 -73.2333 252° West 182 209 6,100  Level New York TRACON
09:56PM 41.4167 -73.2833 228° Southwest 183 211 6,100  Level New York TRACON
09:57PM 41.4000 -73.3500 252° West 186 214 6,100  Level New York TRACON
09:58PM 41.3667 -73.4000 228° Southwest 185 213 6,100 -300 Level New York TRACON
09:59PM 41.3333 -73.4667 236° Southwest 195 224 5,600 -780 Descending New York TRACON
10:00PM 41.3167 -73.5333 252° West 201 231 4,600 -780 Descending New York TRACON
10:01PM 41.2833 -73.5833 228° Southwest 200 230 4,100 -240 Descending New York TRACON
10:02PM 41.2667 -73.6500 252° West 176 203 4,200 -60 Climbing New York TRACON
10:03PM 41.2667 -73.7167 270° West 184 212 4,000  Descending New York TRACON
10:04PM 41.2667 -73.7833 270° West 174 200 4,200 60 Climbing New York TRACON
10:05PM 41.2500 -73.8500 252° West 180 207 4,200 -60 Level New York TRACON
10:06PM 41.2500 -73.9167 270° West 179 206 4,100 -60 Descending New York TRACON
10:07PM 41.2500 -73.9833 270° West 177 204 4,100  Level New York TRACON
10:08PM 41.2333 -74.0500 252° West 181 208 4,100  Level New York TRACON
10:09PM 41.2000 -74.1000 228° Southwest 190 219 4,100  Level New York TRACON
10:10PM 41.1667 -74.1500 228° Southwest 186 214 4,100  Level New York TRACON
10:11PM 41.1500 -74.2000 246° West 181 208 4,100  Level New York TRACON
10:12PM 41.1167 -74.2667 236° Southwest 187 215 4,100  Level New York TRACON
10:13PM 41.0833 -74.3167 229° Southwest 189 217 4,100 -180 Level New York TRACON
10:14PM 41.0333 -74.3500 207° Southwest 192 221 3,800 -480 Descending New York TRACON
10:15PM 40.9833 -74.3833 207° Southwest 205 236 3,100 -360 Descending New York TRACON
10:16PM 40.9333 -74.4000 194° South 195 224 3,100  Level New York TRACON
10:17PM 40.8833 -74.4000 180° South 190 219 3,100  Level New York TRACON
10:18PM 40.8333 -74.4000 180° South 189 217 3,100  Level New York TRACON
10:19PM 40.7833 -74.3833 166° South 189 217 3,100 -420 Level New York TRACON
10:20PM 40.7333 -74.3667 166° South 210 242 2,400 -480 Descending New York TRACON
10:21PM 40.7167 -74.2833 105° East 176 203 2,100 -240 Descending New York TRACON
10:22PM 40.7333 -74.2333 66° East 161 185 2,000 -300 Descending New York TRACON
10:23PM 40.7667 -74.1833 49° Northeast 160 184 1,600 -300 Descending New York TRACON
10:24PM 40.8000 -74.1500 37° Northeast 153 176 1,400 -360 Descending New York TRACON
10:25PM 40.8167 -74.1167 57° Northeast 138 159 1,000 -540 Descending New York TRACON
10:26PM 40.8333 -74.0833 57° Northeast 107 123 400 -600 Descending New York TRACON
10:28PM 40.8500 -74.0500 60° Northeast  Level FlightAware Approximate
10:35PM 40.8501 -74.0608 60° Northeast  Level Estimated